sensor_id;sensor_type;location;lat;lon;timestamp;temperature;humidity
39847;DHT22;25517;52.422;10.782;2022-09-25T00:01:10;12.30;99.90
39847;DHT22;25517;52.422;10.782;2022-09-25T00:03:37;12.30;99.90
39847;DHT22;25517;52.422;10.782;2022-09-25T00:06:05;12.30;99.90
39847;DHT22;25517;52.422;10.782;2022-09-25T00:08:32;12.30;99.90
39847;DHT22;25517;52.422;10.782;2022-09-25T00:10:58;12.30;99.90
39847;DHT22;25517;52.422;10.782;2022-09-25T00:13:24;12.30;99.90
39847;DHT22;25517;52.422;10.782;2022-09-25T00:15:52;12.30;99.90
39847;DHT22;25517;52.422;10.782;2022-09-25T00:18:19;12.40;99.90
39847;DHT22;25517;52.422;10.782;2022-09-25T00:21:06;12.40;99.90
39847;DHT22;25517;52.422;10.782;2022-09-25T00:23:33;12.40;99.90
39847;DHT22;25517;52.422;10.782;2022-09-25T00:25:59;12.40;99.90
39847;DHT22;25517;52.422;10.782;2022-09-25T00:28:25;12.40;99.90
39847;DHT22;25517;52.422;10.782;2022-09-25T00:30:55;12.40;99.90
39847;DHT22;25517;52.422;10.782;2022-09-25T00:33:21;12.40;99.90
39847;DHT22;25517;52.422;10.782;2022-09-25T00:35:46;12.40;99.90
39847;DHT22;25517;52.422;10.782;2022-09-25T00:38:12;12.50;99.90
39847;DHT22;25517;52.422;10.782;2022-09-25T00:40:37;12.50;99.90
39847;DHT22;25517;52.422;10.782;2022-09-25T00:43:08;12.50;99.90
39847;DHT22;25517;52.422;10.782;2022-09-25T00:45:35;12.50;99.90
39847;DHT22;25517;52.422;10.782;2022-09-25T00:48:08;12.60;99.90
39847;DHT22;25517;52.422;10.782;2022-09-25T00:50:45;12.60;99.90
39847;DHT22;25517;52.422;10.782;2022-09-25T00:53:31;12.60;99.90
39847;DHT22;25517;52.422;10.782;2022-09-25T00:56:00;12.70;99.90
39847;DHT22;25517;52.422;10.782;2022-09-25T00:58:28;12.70;99.90
39847;DHT22;25517;52.422;10.782;2022-09-25T01:00:55;12.60;99.90
39847;DHT22;25517;52.422;10.782;2022-09-25T01:03:22;12.70;99.90
39847;DHT22;25517;52.422;10.782;2022-09-25T01:05:48;12.70;99.90
39847;DHT22;25517;52.422;10.782;2022-09-25T01:08:18;12.70;99.90
39847;DHT22;25517;52.422;10.782;2022-09-25T01:10:44;12.70;99.90
39847;DHT22;25517;52.422;10.782;2022-09-25T01:13:11;12.70;99.90
39847;DHT22;25517;52.422;10.782;2022-09-25T01:31:15;12.60;99.90
39847;DHT22;25517;52.422;10.782;2022-09-25T01:33:46;12.60;99.90
39847;DHT22;25517;52.422;10.782;2022-09-25T01:36:28;12.60;99.90
39847;DHT22;25517;52.422;10.782;2022-09-25T01:39:20;12.60;99.90
39847;DHT22;25517;52.422;10.782;2022-09-25T01:41:57;12.60;99.90
39847;DHT22;25517;52.422;10.782;2022-09-25T01:44:28;12.70;99.90
39847;DHT22;25517;52.422;10.782;2022-09-25T01:47:01;12.60;99.90
39847;DHT22;25517;52.422;10.782;2022-09-25T01:49:35;12.70;99.90
39847;DHT22;25517;52.422;10.782;2022-09-25T01:52:06;12.70;99.90
39847;DHT22;25517;52.422;10.782;2022-09-25T01:54:43;12.60;99.90
39847;DHT22;25517;52.422;10.782;2022-09-25T01:57:35;12.60;99.90
39847;DHT22;25517;52.422;10.782;2022-09-25T02:00:05;12.60;99.90
39847;DHT22;25517;52.422;10.782;2022-09-25T02:02:40;12.60;99.90
39847;DHT22;25517;52.422;10.782;2022-09-25T02:05:17;12.60;99.90
39847;DHT22;25517;52.422;10.782;2022-09-25T02:07:58;12.60;99.90
39847;DHT22;25517;52.422;10.782;2022-09-25T02:10:30;12.60;99.90
39847;DHT22;25517;52.422;10.782;2022-09-25T02:13:05;12.60;99.90
39847;DHT22;25517;52.422;10.782;2022-09-25T02:15:38;12.60;99.90
39847;DHT22;25517;52.422;10.782;2022-09-25T02:18:08;12.60;99.90
39847;DHT22;25517;52.422;10.782;2022-09-25T02:24:03;12.60;99.90
39847;DHT22;25517;52.422;10.782;2022-09-25T02:26:32;12.60;99.90
39847;DHT22;25517;52.422;10.782;2022-09-25T02:28:59;12.60;99.90
39847;DHT22;25517;52.422;10.782;2022-09-25T02:31:28;12.50;99.90
39847;DHT22;25517;52.422;10.782;2022-09-25T02:33:56;12.60;99.90
39847;DHT22;25517;52.422;10.782;2022-09-25T02:36:22;12.60;99.90
39847;DHT22;25517;52.422;10.782;2022-09-25T02:38:49;12.60;99.90
39847;DHT22;25517;52.422;10.782;2022-09-25T02:44:57;12.70;99.90
39847;DHT22;25517;52.422;10.782;2022-09-25T02:49:49;12.70;99.90
39847;DHT22;25517;52.422;10.782;2022-09-25T02:52:58;12.70;99.90
39847;DHT22;25517;52.422;10.782;2022-09-25T02:55:42;12.60;99.90
39847;DHT22;25517;52.422;10.782;2022-09-25T03:00:51;12.60;99.90
39847;DHT22;25517;52.422;10.782;2022-09-25T03:03:19;12.60;99.90
39847;DHT22;25517;52.422;10.782;2022-09-25T03:05:46;12.60;99.90
39847;DHT22;25517;52.422;10.782;2022-09-25T03:08:13;12.70;99.90
39847;DHT22;25517;52.422;10.782;2022-09-25T03:10:57;12.60;99.90
39847;DHT22;25517;52.422;10.782;2022-09-25T03:13:26;12.60;99.90
39847;DHT22;25517;52.422;10.782;2022-09-25T03:16:02;12.60;99.90
39847;DHT22;25517;52.422;10.782;2022-09-25T03:18:29;12.60;99.90
39847;DHT22;25517;52.422;10.782;2022-09-25T03:20:56;12.60;99.90
39847;DHT22;25517;52.422;10.782;2022-09-25T03:23:22;12.70;99.90
39847;DHT22;25517;52.422;10.782;2022-09-25T03:25:48;12.60;99.90
39847;DHT22;25517;52.422;10.782;2022-09-25T03:28:14;12.60;99.90
39847;DHT22;25517;52.422;10.782;2022-09-25T03:30:40;12.60;99.90
39847;DHT22;25517;52.422;10.782;2022-09-25T03:33:14;12.60;99.90
39847;DHT22;25517;52.422;10.782;2022-09-25T03:35:41;12.60;99.90
39847;DHT22;25517;52.422;10.782;2022-09-25T03:38:07;12.60;99.90
39847;DHT22;25517;52.422;10.782;2022-09-25T03:40:34;12.60;99.90
39847;DHT22;25517;52.422;10.782;2022-09-25T03:43:00;12.70;99.90
39847;DHT22;25517;52.422;10.782;2022-09-25T03:45:26;12.60;99.90
39847;DHT22;25517;52.422;10.782;2022-09-25T03:47:52;12.60;99.90
39847;DHT22;25517;52.422;10.782;2022-09-25T03:50:17;12.60;99.90
39847;DHT22;25517;52.422;10.782;2022-09-25T03:52:43;12.70;99.90
39847;DHT22;25517;52.422;10.782;2022-09-25T03:55:09;12.70;99.90
39847;DHT22;25517;52.422;10.782;2022-09-25T03:57:36;12.70;99.90
39847;DHT22;25517;52.422;10.782;2022-09-25T04:00:03;12.70;99.90
39847;DHT22;25517;52.422;10.782;2022-09-25T04:02:29;12.60;99.90
39847;DHT22;25517;52.422;10.782;2022-09-25T04:04:55;12.70;99.90
39847;DHT22;25517;52.422;10.782;2022-09-25T04:07:21;12.70;99.90
39847;DHT22;25517;52.422;10.782;2022-09-25T04:09:48;12.70;99.90
39847;DHT22;25517;52.422;10.782;2022-09-25T04:12:13;12.70;99.90
39847;DHT22;25517;52.422;10.782;2022-09-25T04:14:39;12.70;99.90
39847;DHT22;25517;52.422;10.782;2022-09-25T04:17:07;12.70;99.90
39847;DHT22;25517;52.422;10.782;2022-09-25T04:19:32;12.70;99.90
39847;DHT22;25517;52.422;10.782;2022-09-25T04:21:58;12.70;99.90
39847;DHT22;25517;52.422;10.782;2022-09-25T04:24:23;12.70;99.90
39847;DHT22;25517;52.422;10.782;2022-09-25T04:27:08;12.70;99.90
39847;DHT22;25517;52.422;10.782;2022-09-25T04:29:34;12.70;99.90
39847;DHT22;25517;52.422;10.782;2022-09-25T04:32:01;12.70;99.90
39847;DHT22;25517;52.422;10.782;2022-09-25T04:34:45;12.70;99.90
39847;DHT22;25517;52.422;10.782;2022-09-25T04:37:10;12.70;99.90
39847;DHT22;25517;52.422;10.782;2022-09-25T04:39:38;12.70;99.90
39847;DHT22;25517;52.422;10.782;2022-09-25T04:42:04;12.70;99.90
39847;DHT22;25517;52.422;10.782;2022-09-25T04:44:30;12.70;99.90
39847;DHT22;25517;52.422;10.782;2022-09-25T04:46:55;12.70;99.90
39847;DHT22;25517;52.422;10.782;2022-09-25T04:49:21;12.70;99.90
39847;DHT22;25517;52.422;10.782;2022-09-25T04:51:47;12.70;99.90
39847;DHT22;25517;52.422;10.782;2022-09-25T04:54:12;12.70;99.90
39847;DHT22;25517;52.422;10.782;2022-09-25T04:56:42;12.60;99.90
39847;DHT22;25517;52.422;10.782;2022-09-25T04:59:08;12.60;99.90
39847;DHT22;25517;52.422;10.782;2022-09-25T05:01:36;12.60;99.90
39847;DHT22;25517;52.422;10.782;2022-09-25T05:04:01;12.60;99.90
39847;DHT22;25517;52.422;10.782;2022-09-25T05:06:27;12.60;99.90
39847;DHT22;25517;52.422;10.782;2022-09-25T05:08:54;12.60;99.90
39847;DHT22;25517;52.422;10.782;2022-09-25T05:11:21;12.70;99.90
39847;DHT22;25517;52.422;10.782;2022-09-25T05:13:51;12.60;99.90
39847;DHT22;25517;52.422;10.782;2022-09-25T05:16:17;12.70;99.90
39847;DHT22;25517;52.422;10.782;2022-09-25T05:18:43;12.60;99.90
39847;DHT22;25517;52.422;10.782;2022-09-25T05:21:08;12.70;99.90
39847;DHT22;25517;52.422;10.782;2022-09-25T05:23:34;12.60;99.90
39847;DHT22;25517;52.422;10.782;2022-09-25T05:25:59;12.60;99.90
39847;DHT22;25517;52.422;10.782;2022-09-25T05:28:30;12.60;99.90
39847;DHT22;25517;52.422;10.782;2022-09-25T05:31:03;12.60;99.90
39847;DHT22;25517;52.422;10.782;2022-09-25T05:33:33;12.50;99.90
39847;DHT22;25517;52.422;10.782;2022-09-25T05:36:04;12.50;99.90
39847;DHT22;25517;52.422;10.782;2022-09-25T05:38:34;12.50;99.90
39847;DHT22;25517;52.422;10.782;2022-09-25T05:41:04;12.50;99.90
39847;DHT22;25517;52.422;10.782;2022-09-25T05:43:31;12.50;99.90
39847;DHT22;25517;52.422;10.782;2022-09-25T05:45:57;12.50;99.90
39847;DHT22;25517;52.422;10.782;2022-09-25T05:48:23;12.50;99.90
39847;DHT22;25517;52.422;10.782;2022-09-25T05:50:53;12.50;99.90
39847;DHT22;25517;52.422;10.782;2022-09-25T05:53:19;12.50;99.90
39847;DHT22;25517;52.422;10.782;2022-09-25T05:55:58;12.50;99.90
39847;DHT22;25517;52.422;10.782;2022-09-25T05:58:28;12.40;99.90
39847;DHT22;25517;52.422;10.782;2022-09-25T06:00:54;12.40;99.90
39847;DHT22;25517;52.422;10.782;2022-09-25T06:03:23;12.40;99.90
39847;DHT22;25517;52.422;10.782;2022-09-25T06:05:57;12.40;99.90
39847;DHT22;25517;52.422;10.782;2022-09-25T06:08:24;12.40;99.90
39847;DHT22;25517;52.422;10.782;2022-09-25T06:10:52;12.40;99.90
39847;DHT22;25517;52.422;10.782;2022-09-25T06:13:18;12.40;99.90
39847;DHT22;25517;52.422;10.782;2022-09-25T06:15:44;12.40;99.90
39847;DHT22;25517;52.422;10.782;2022-09-25T06:18:09;12.40;99.90
39847;DHT22;25517;52.422;10.782;2022-09-25T06:20:35;12.50;99.90
39847;DHT22;25517;52.422;10.782;2022-09-25T06:23:01;12.40;99.90
39847;DHT22;25517;52.422;10.782;2022-09-25T06:25:30;12.50;99.90
39847;DHT22;25517;52.422;10.782;2022-09-25T06:28:01;12.50;99.90
39847;DHT22;25517;52.422;10.782;2022-09-25T06:30:29;12.50;99.90
39847;DHT22;25517;52.422;10.782;2022-09-25T06:33:02;12.50;99.90
39847;DHT22;25517;52.422;10.782;2022-09-25T06:35:28;12.50;99.90
39847;DHT22;25517;52.422;10.782;2022-09-25T06:37:58;12.50;99.90
39847;DHT22;25517;52.422;10.782;2022-09-25T06:40:28;12.50;99.90
39847;DHT22;25517;52.422;10.782;2022-09-25T06:42:59;12.50;99.90
39847;DHT22;25517;52.422;10.782;2022-09-25T06:45:26;12.60;99.90
39847;DHT22;25517;52.422;10.782;2022-09-25T06:47:53;12.60;99.90
39847;DHT22;25517;52.422;10.782;2022-09-25T06:50:25;12.60;99.90
39847;DHT22;25517;52.422;10.782;2022-09-25T06:52:59;12.60;99.90
39847;DHT22;25517;52.422;10.782;2022-09-25T06:55:29;12.60;99.90
39847;DHT22;25517;52.422;10.782;2022-09-25T06:57:56;12.60;99.90
39847;DHT22;25517;52.422;10.782;2022-09-25T07:00:22;12.60;99.90
39847;DHT22;25517;52.422;10.782;2022-09-25T07:02:48;12.60;99.90
39847;DHT22;25517;52.422;10.782;2022-09-25T07:05:32;12.60;99.90
39847;DHT22;25517;52.422;10.782;2022-09-25T07:07:58;12.60;99.90
39847;DHT22;25517;52.422;10.782;2022-09-25T07:10:24;12.60;99.90
39847;DHT22;25517;52.422;10.782;2022-09-25T07:12:50;12.60;99.90
39847;DHT22;25517;52.422;10.782;2022-09-25T07:15:15;12.70;99.90
39847;DHT22;25517;52.422;10.782;2022-09-25T07:17:42;12.70;99.90
39847;DHT22;25517;52.422;10.782;2022-09-25T07:20:08;12.70;99.90
39847;DHT22;25517;52.422;10.782;2022-09-25T07:22:37;12.70;99.90
39847;DHT22;25517;52.422;10.782;2022-09-25T07:25:03;12.80;99.90
39847;DHT22;25517;52.422;10.782;2022-09-25T07:27:29;12.80;99.90
39847;DHT22;25517;52.422;10.782;2022-09-25T07:29:55;12.80;99.90
39847;DHT22;25517;52.422;10.782;2022-09-25T07:32:21;12.70;99.90
39847;DHT22;25517;52.422;10.782;2022-09-25T07:34:46;12.80;99.90
39847;DHT22;25517;52.422;10.782;2022-09-25T07:37:16;12.80;99.90
39847;DHT22;25517;52.422;10.782;2022-09-25T07:39:42;12.80;99.90
39847;DHT22;25517;52.422;10.782;2022-09-25T07:42:08;12.80;99.90
39847;DHT22;25517;52.422;10.782;2022-09-25T07:44:34;12.90;99.90
39847;DHT22;25517;52.422;10.782;2022-09-25T07:47:00;12.90;99.90
39847;DHT22;25517;52.422;10.782;2022-09-25T07:49:28;12.90;99.90
39847;DHT22;25517;52.422;10.782;2022-09-25T07:51:54;12.90;99.90
39847;DHT22;25517;52.422;10.782;2022-09-25T07:54:19;13.00;99.90
39847;DHT22;25517;52.422;10.782;2022-09-25T07:56:45;13.00;99.90
39847;DHT22;25517;52.422;10.782;2022-09-25T07:59:11;13.00;99.90
39847;DHT22;25517;52.422;10.782;2022-09-25T08:01:36;12.90;99.90
39847;DHT22;25517;52.422;10.782;2022-09-25T08:04:02;13.00;99.90
39847;DHT22;25517;52.422;10.782;2022-09-25T08:06:27;13.00;99.90
39847;DHT22;25517;52.422;10.782;2022-09-25T08:08:53;12.90;99.90
39847;DHT22;25517;52.422;10.782;2022-09-25T08:11:18;13.00;99.90
39847;DHT22;25517;52.422;10.782;2022-09-25T08:13:45;13.00;99.90
39847;DHT22;25517;52.422;10.782;2022-09-25T08:16:13;13.00;99.90
39847;DHT22;25517;52.422;10.782;2022-09-25T08:18:40;13.10;99.90
39847;DHT22;25517;52.422;10.782;2022-09-25T08:21:06;13.10;99.90
39847;DHT22;25517;52.422;10.782;2022-09-25T08:23:32;13.00;99.90
39847;DHT22;25517;52.422;10.782;2022-09-25T08:25:58;13.00;99.90
39847;DHT22;25517;52.422;10.782;2022-09-25T08:28:24;13.00;99.90
39847;DHT22;25517;52.422;10.782;2022-09-25T08:31:05;13.00;99.90
39847;DHT22;25517;52.422;10.782;2022-09-25T08:33:31;13.00;99.90
39847;DHT22;25517;52.422;10.782;2022-09-25T08:36:00;13.00;99.90
39847;DHT22;25517;52.422;10.782;2022-09-25T08:38:27;13.00;99.90
39847;DHT22;25517;52.422;10.782;2022-09-25T08:41:03;13.00;99.90
39847;DHT22;25517;52.422;10.782;2022-09-25T08:43:31;13.00;99.90
39847;DHT22;25517;52.422;10.782;2022-09-25T08:46:02;13.10;99.90
39847;DHT22;25517;52.422;10.782;2022-09-25T08:48:53;13.10;99.90
39847;DHT22;25517;52.422;10.782;2022-09-25T08:51:45;13.10;99.90
39847;DHT22;25517;52.422;10.782;2022-09-25T08:54:23;13.10;99.90
39847;DHT22;25517;52.422;10.782;2022-09-25T08:56:55;13.20;99.90
39847;DHT22;25517;52.422;10.782;2022-09-25T08:59:27;13.20;99.90
39847;DHT22;25517;52.422;10.782;2022-09-25T09:01:58;13.10;99.90
39847;DHT22;25517;52.422;10.782;2022-09-25T09:04:31;13.20;99.90
39847;DHT22;25517;52.422;10.782;2022-09-25T09:07:04;13.10;99.90
39847;DHT22;25517;52.422;10.782;2022-09-25T09:09:39;13.10;99.90
39847;DHT22;25517;52.422;10.782;2022-09-25T09:12:11;13.10;99.90
39847;DHT22;25517;52.422;10.782;2022-09-25T09:14:46;13.10;99.90
39847;DHT22;25517;52.422;10.782;2022-09-25T09:17:24;13.20;99.90
39847;DHT22;25517;52.422;10.782;2022-09-25T09:19:54;13.20;99.90
39847;DHT22;25517;52.422;10.782;2022-09-25T09:22:28;13.20;99.90
39847;DHT22;25517;52.422;10.782;2022-09-25T09:25:23;13.30;99.90
39847;DHT22;25517;52.422;10.782;2022-09-25T09:33:26;13.40;99.90
39847;DHT22;25517;52.422;10.782;2022-09-25T09:41:23;13.40;99.90
39847;DHT22;25517;52.422;10.782;2022-09-25T09:50:00;13.40;99.90
39847;DHT22;25517;52.422;10.782;2022-09-25T09:52:20;13.40;99.90
39847;DHT22;25517;52.422;10.782;2022-09-25T09:54:59;13.50;99.90
39847;DHT22;25517;52.422;10.782;2022-09-25T09:57:32;13.60;99.90
39847;DHT22;25517;52.422;10.782;2022-09-25T10:00:13;13.50;99.90
39847;DHT22;25517;52.422;10.782;2022-09-25T10:02:49;13.50;99.90
39847;DHT22;25517;52.422;10.782;2022-09-25T10:07:53;13.50;99.90
39847;DHT22;25517;52.422;10.782;2022-09-25T10:10:19;13.50;99.90
39847;DHT22;25517;52.422;10.782;2022-09-25T10:12:52;13.60;99.90
39847;DHT22;25517;52.422;10.782;2022-09-25T10:15:42;13.50;99.90
39847;DHT22;25517;52.422;10.782;2022-09-25T10:18:09;13.50;99.90
39847;DHT22;25517;52.422;10.782;2022-09-25T10:20:55;13.50;99.90
39847;DHT22;25517;52.422;10.782;2022-09-25T10:23:36;13.70;99.90
39847;DHT22;25517;52.422;10.782;2022-09-25T10:28:48;13.70;99.90
39847;DHT22;25517;52.422;10.782;2022-09-25T10:31:16;13.60;99.90
39847;DHT22;25517;52.422;10.782;2022-09-25T10:34:05;13.70;99.90
39847;DHT22;25517;52.422;10.782;2022-09-25T10:36:46;13.70;99.90
39847;DHT22;25517;52.422;10.782;2022-09-25T10:39:32;13.70;99.90
39847;DHT22;25517;52.422;10.782;2022-09-25T10:42:00;13.70;99.90
39847;DHT22;25517;52.422;10.782;2022-09-25T10:44:33;13.70;99.90
39847;DHT22;25517;52.422;10.782;2022-09-25T10:50:25;13.70;99.90
39847;DHT22;25517;52.422;10.782;2022-09-25T10:52:52;13.80;99.90
39847;DHT22;25517;52.422;10.782;2022-09-25T10:55:28;13.90;99.90
39847;DHT22;25517;52.422;10.782;2022-09-25T11:00:26;14.10;99.90
39847;DHT22;25517;52.422;10.782;2022-09-25T11:02:57;14.10;99.90
39847;DHT22;25517;52.422;10.782;2022-09-25T11:05:30;14.20;99.90
39847;DHT22;25517;52.422;10.782;2022-09-25T11:07:59;14.30;99.90
39847;DHT22;25517;52.422;10.782;2022-09-25T11:10:28;14.30;99.90
39847;DHT22;25517;52.422;10.782;2022-09-25T11:12:56;14.30;99.90
39847;DHT22;25517;52.422;10.782;2022-09-25T11:15:24;14.40;99.90
39847;DHT22;25517;52.422;10.782;2022-09-25T11:17:56;14.50;99.90
39847;DHT22;25517;52.422;10.782;2022-09-25T11:20:30;14.50;99.90
39847;DHT22;25517;52.422;10.782;2022-09-25T11:23:01;14.50;99.90
39847;DHT22;25517;52.422;10.782;2022-09-25T11:26:14;14.40;99.90
39847;DHT22;25517;52.422;10.782;2022-09-25T11:28:50;14.50;99.90
39847;DHT22;25517;52.422;10.782;2022-09-25T11:31:41;14.50;99.90
39847;DHT22;25517;52.422;10.782;2022-09-25T11:36:40;14.60;99.90
39847;DHT22;25517;52.422;10.782;2022-09-25T11:39:13;14.60;99.90
39847;DHT22;25517;52.422;10.782;2022-09-25T11:42:00;14.60;99.90
39847;DHT22;25517;52.422;10.782;2022-09-25T11:44:56;14.70;99.90
39847;DHT22;25517;52.422;10.782;2022-09-25T11:47:26;14.80;99.90
39847;DHT22;25517;52.422;10.782;2022-09-25T11:49:56;14.70;99.90
39847;DHT22;25517;52.422;10.782;2022-09-25T11:58:02;15.00;99.90
39847;DHT22;25517;52.422;10.782;2022-09-25T12:03:16;15.10;99.90
39847;DHT22;25517;52.422;10.782;2022-09-25T12:11:34;14.90;99.90
39847;DHT22;25517;52.422;10.782;2022-09-25T12:15:14;14.80;99.90
39847;DHT22;25517;52.422;10.782;2022-09-25T12:29:19;14.70;99.90
39847;DHT22;25517;52.422;10.782;2022-09-25T12:34:47;14.60;99.90
39847;DHT22;25517;52.422;10.782;2022-09-25T12:40:24;14.70;99.90
39847;DHT22;25517;52.422;10.782;2022-09-25T12:46:11;14.80;99.90
39847;DHT22;25517;52.422;10.782;2022-09-25T12:51:48;14.80;99.90
39847;DHT22;25517;52.422;10.782;2022-09-25T12:56:57;14.90;99.90
39847;DHT22;25517;52.422;10.782;2022-09-25T12:59:38;15.00;99.90
39847;DHT22;25517;52.422;10.782;2022-09-25T13:07:54;15.00;99.90
39847;DHT22;25517;52.422;10.782;2022-09-25T13:10:39;15.00;99.90
39847;DHT22;25517;52.422;10.782;2022-09-25T13:13:12;15.00;99.90
39847;DHT22;25517;52.422;10.782;2022-09-25T13:15:45;15.00;99.90
39847;DHT22;25517;52.422;10.782;2022-09-25T13:18:19;15.10;99.90
39847;DHT22;25517;52.422;10.782;2022-09-25T13:20:49;15.30;99.90
39847;DHT22;25517;52.422;10.782;2022-09-25T13:23:18;15.40;99.90
39847;DHT22;25517;52.422;10.782;2022-09-25T13:25:51;15.40;99.90
39847;DHT22;25517;52.422;10.782;2022-09-25T13:28:35;15.30;99.90
39847;DHT22;25517;52.422;10.782;2022-09-25T13:31:10;15.20;99.90
39847;DHT22;25517;52.422;10.782;2022-09-25T13:38:59;14.70;99.90
39847;DHT22;25517;52.422;10.782;2022-09-25T13:42:01;14.60;99.90
39847;DHT22;25517;52.422;10.782;2022-09-25T13:49:53;14.60;99.90
39847;DHT22;25517;52.422;10.782;2022-09-25T13:55:15;14.60;99.90
39847;DHT22;25517;52.422;10.782;2022-09-25T14:03:00;14.70;99.90
39847;DHT22;25517;52.422;10.782;2022-09-25T14:05:32;14.80;99.90
39847;DHT22;25517;52.422;10.782;2022-09-25T14:08:08;14.90;99.90
39847;DHT22;25517;52.422;10.782;2022-09-25T14:10:36;15.00;99.90
39847;DHT22;25517;52.422;10.782;2022-09-25T14:13:11;15.00;99.90
39847;DHT22;25517;52.422;10.782;2022-09-25T14:15:38;15.00;99.90
39847;DHT22;25517;52.422;10.782;2022-09-25T14:18:54;15.10;99.90
39847;DHT22;25517;52.422;10.782;2022-09-25T14:21:13;15.10;99.90
39847;DHT22;25517;52.422;10.782;2022-09-25T14:23:52;15.20;99.90
39847;DHT22;25517;52.422;10.782;2022-09-25T14:26:27;15.20;99.90
39847;DHT22;25517;52.422;10.782;2022-09-25T14:28:55;15.10;99.90
39847;DHT22;25517;52.422;10.782;2022-09-25T14:34:28;15.30;99.90
39847;DHT22;25517;52.422;10.782;2022-09-25T14:43:07;15.40;99.90
39847;DHT22;25517;52.422;10.782;2022-09-25T14:45:50;15.60;99.90
39847;DHT22;25517;52.422;10.782;2022-09-25T14:48:25;15.90;99.90
39847;DHT22;25517;52.422;10.782;2022-09-25T14:50:55;16.10;99.90
39847;DHT22;25517;52.422;10.782;2022-09-25T14:53:25;16.20;99.90
39847;DHT22;25517;52.422;10.782;2022-09-25T14:55:53;16.30;99.90
39847;DHT22;25517;52.422;10.782;2022-09-25T14:58:23;16.30;99.90
39847;DHT22;25517;52.422;10.782;2022-09-25T15:00:54;16.20;99.90
39847;DHT22;25517;52.422;10.782;2022-09-25T15:03:25;16.00;99.90
39847;DHT22;25517;52.422;10.782;2022-09-25T15:05:51;15.90;99.90
39847;DHT22;25517;52.422;10.782;2022-09-25T15:11:22;15.90;99.90
39847;DHT22;25517;52.422;10.782;2022-09-25T15:13:51;15.90;99.90
39847;DHT22;25517;52.422;10.782;2022-09-25T15:16:22;15.80;99.90
39847;DHT22;25517;52.422;10.782;2022-09-25T15:21:41;15.70;99.90
39847;DHT22;25517;52.422;10.782;2022-09-25T15:24:25;15.60;99.90
39847;DHT22;25517;52.422;10.782;2022-09-25T15:26:57;15.60;99.90
39847;DHT22;25517;52.422;10.782;2022-09-25T15:29:29;15.50;99.90
39847;DHT22;25517;52.422;10.782;2022-09-25T15:31:57;15.60;99.90
39847;DHT22;25517;52.422;10.782;2022-09-25T15:34:28;15.50;99.90
39847;DHT22;25517;52.422;10.782;2022-09-25T15:37:20;15.50;99.90
39847;DHT22;25517;52.422;10.782;2022-09-25T15:39:50;15.40;99.90
39847;DHT22;25517;52.422;10.782;2022-09-25T15:42:16;15.40;99.90
39847;DHT22;25517;52.422;10.782;2022-09-25T15:44:42;15.50;99.90
39847;DHT22;25517;52.422;10.782;2022-09-25T15:49:59;15.70;99.90
39847;DHT22;25517;52.422;10.782;2022-09-25T15:52:28;15.60;99.90
39847;DHT22;25517;52.422;10.782;2022-09-25T15:55:01;15.50;99.90
39847;DHT22;25517;52.422;10.782;2022-09-25T15:57:28;15.40;99.90
39847;DHT22;25517;52.422;10.782;2022-09-25T15:59:55;15.20;99.90
39847;DHT22;25517;52.422;10.782;2022-09-25T16:03:05;15.10;99.90
39847;DHT22;25517;52.422;10.782;2022-09-25T16:05:53;15.00;99.90
39847;DHT22;25517;52.422;10.782;2022-09-25T16:10:49;14.70;99.90
39847;DHT22;25517;52.422;10.782;2022-09-25T16:13:21;14.70;99.90
39847;DHT22;25517;52.422;10.782;2022-09-25T16:15:50;14.50;99.90
39847;DHT22;25517;52.422;10.782;2022-09-25T16:20:57;14.30;99.90
39847;DHT22;25517;52.422;10.782;2022-09-25T16:23:31;14.20;99.90
39847;DHT22;25517;52.422;10.782;2022-09-25T16:25:57;14.10;99.90
39847;DHT22;25517;52.422;10.782;2022-09-25T16:28:32;14.00;99.90
39847;DHT22;25517;52.422;10.782;2022-09-25T16:31:06;13.90;99.90
39847;DHT22;25517;52.422;10.782;2022-09-25T16:33:33;13.80;99.90
39847;DHT22;25517;52.422;10.782;2022-09-25T16:36:05;13.80;99.90
39847;DHT22;25517;52.422;10.782;2022-09-25T16:38:34;13.80;99.90
39847;DHT22;25517;52.422;10.782;2022-09-25T16:41:22;13.70;99.90
39847;DHT22;25517;52.422;10.782;2022-09-25T16:44:19;13.60;99.90
39847;DHT22;25517;52.422;10.782;2022-09-25T16:49:17;13.40;99.90
39847;DHT22;25517;52.422;10.782;2022-09-25T16:51:45;13.40;99.90
39847;DHT22;25517;52.422;10.782;2022-09-25T16:54:13;13.30;99.90
39847;DHT22;25517;52.422;10.782;2022-09-25T16:56:43;13.30;99.90
39847;DHT22;25517;52.422;10.782;2022-09-25T16:59:18;13.20;99.90
39847;DHT22;25517;52.422;10.782;2022-09-25T17:01:50;13.10;99.90
39847;DHT22;25517;52.422;10.782;2022-09-25T17:04:20;13.10;99.90
39847;DHT22;25517;52.422;10.782;2022-09-25T17:06:46;13.00;99.90
39847;DHT22;25517;52.422;10.782;2022-09-25T17:09:14;12.90;99.90
39847;DHT22;25517;52.422;10.782;2022-09-25T17:11:42;12.80;99.90
39847;DHT22;25517;52.422;10.782;2022-09-25T17:14:23;12.80;99.90
39847;DHT22;25517;52.422;10.782;2022-09-25T17:16:50;12.70;99.90
39847;DHT22;25517;52.422;10.782;2022-09-25T17:19:16;12.60;99.90
39847;DHT22;25517;52.422;10.782;2022-09-25T17:21:44;12.50;99.90
39847;DHT22;25517;52.422;10.782;2022-09-25T17:24:13;12.50;99.90
39847;DHT22;25517;52.422;10.782;2022-09-25T17:26:39;12.50;99.90
39847;DHT22;25517;52.422;10.782;2022-09-25T17:29:05;12.40;99.90
39847;DHT22;25517;52.422;10.782;2022-09-25T17:31:31;12.40;99.90
39847;DHT22;25517;52.422;10.782;2022-09-25T17:33:58;12.30;99.90
39847;DHT22;25517;52.422;10.782;2022-09-25T17:36:24;12.30;99.90
39847;DHT22;25517;52.422;10.782;2022-09-25T17:38:49;12.20;99.90
39847;DHT22;25517;52.422;10.782;2022-09-25T17:41:31;12.10;99.90
39847;DHT22;25517;52.422;10.782;2022-09-25T17:43:58;12.00;99.90
39847;DHT22;25517;52.422;10.782;2022-09-25T17:46:24;12.00;99.90
39847;DHT22;25517;52.422;10.782;2022-09-25T17:48:51;11.90;99.90
39847;DHT22;25517;52.422;10.782;2022-09-25T17:51:19;11.90;99.90
39847;DHT22;25517;52.422;10.782;2022-09-25T17:53:46;11.80;99.90
39847;DHT22;25517;52.422;10.782;2022-09-25T17:56:14;11.70;99.90
39847;DHT22;25517;52.422;10.782;2022-09-25T17:58:39;11.70;99.90
39847;DHT22;25517;52.422;10.782;2022-09-25T18:01:20;11.60;99.90
39847;DHT22;25517;52.422;10.782;2022-09-25T18:03:47;11.60;99.90
39847;DHT22;25517;52.422;10.782;2022-09-25T18:06:13;11.60;99.90
39847;DHT22;25517;52.422;10.782;2022-09-25T18:08:39;11.50;99.90